createdAt,value
2018-04-25T00:02:25.706Z,99982
2018-04-25T00:05:00.561Z,99984
2018-04-25T00:07:28.755Z,99983
2018-04-25T00:09:56.925Z,99968
2018-04-25T00:12:25.103Z,99960
2018-04-25T00:14:53.292Z,99958
2018-04-25T00:17:21.461Z,99956
2018-04-25T00:19:49.612Z,99946
2018-04-25T00:22:17.813Z,99943
2018-04-25T00:24:46.003Z,99935
2018-04-25T00:27:16.182Z,99938
2018-04-25T00:29:44.591Z,99926
2018-04-25T00:32:12.753Z,99910
2018-04-25T00:34:40.955Z,99906
2018-04-25T00:37:09.139Z,99911
2018-04-25T00:39:37.326Z,99912
2018-04-25T00:42:06.324Z,99897
2018-04-25T00:44:34.571Z,99885
2018-04-25T00:47:02.657Z,99875
2018-04-25T00:49:31.591Z,99877
2018-04-25T00:51:59.782Z,99867
2018-04-25T00:54:27.951Z,99859
2018-04-25T00:56:56.115Z,99853
2018-04-25T00:59:24.315Z,99865
2018-04-25T01:01:52.595Z,99851
2018-04-25T01:04:20.783Z,99862
2018-04-25T01:06:49.739Z,99851
2018-04-25T01:09:17.914Z,99842
2018-04-25T01:11:46.139Z,99835
2018-04-25T01:14:14.276Z,99839
2018-04-25T01:16:42.491Z,99827
2018-04-25T01:19:10.679Z,99819
2018-04-25T01:21:38.875Z,99810
2018-04-25T01:24:09.305Z,99804
2018-04-25T01:26:37.497Z,99799
2018-04-25T01:29:07.188Z,99792
2018-04-25T01:31:56.878Z,99786
2018-04-25T01:34:37.438Z,99788
2018-04-25T01:37:22.971Z,99777
2018-04-25T01:39:54.619Z,99767
2018-04-25T01:48:56.968Z,99741
2018-04-25T01:51:42.924Z,99733
2018-04-25T01:54:35.933Z,99723
2018-04-25T02:03:10.972Z,99693
2018-04-25T02:05:39.894Z,99686
2018-04-25T02:08:08.074Z,99683
2018-04-25T02:10:36.233Z,99683
2018-04-25T02:13:07.963Z,99676
2018-04-25T02:15:36.145Z,99662
2018-04-25T02:18:05.157Z,99672
2018-04-25T02:20:33.324Z,99659
2018-04-25T02:23:01.503Z,99659
2018-04-25T02:25:29.681Z,99647
2018-04-25T02:27:57.868Z,99637
2018-04-25T02:30:26.027Z,99633
2018-04-25T02:32:54.180Z,99642
2018-04-25T02:35:22.344Z,99623
2018-04-25T02:38:03.491Z,99610
2018-04-25T02:40:31.955Z,99614
2018-04-25T02:43:00.143Z,99617
2018-04-25T02:45:29.084Z,99609
2018-04-25T02:47:57.247Z,99604
2018-04-25T02:50:25.398Z,99590
2018-04-25T02:52:53.549Z,99592
2018-04-25T02:55:52.505Z,99594
2018-04-25T02:58:20.643Z,99591
2018-04-25T03:00:48.807Z,99584
2018-04-25T03:03:28.516Z,99590
2018-04-25T03:06:09.934Z,99525
2018-04-25T03:08:51.411Z,99580
2018-04-25T03:11:19.571Z,99564
2018-04-25T03:13:58.807Z,99551
2018-04-25T03:16:37.982Z,99565
2018-04-25T03:19:06.153Z,99552
2018-04-25T03:21:34.304Z,99552
2018-04-25T03:27:01.803Z,99534
2018-04-25T03:29:30.031Z,99523
2018-04-25T03:32:10.274Z,99522
2018-04-25T03:35:16.589Z,99523
2018-04-25T03:37:44.743Z,99524
2018-04-25T03:40:12.962Z,99516
2018-04-25T03:42:41.112Z,99513
2018-04-25T03:48:28.702Z,99491
2018-04-25T03:50:56.854Z,99490
2018-04-25T03:53:25.048Z,99492
2018-04-25T03:56:17.758Z,99594
2018-04-25T03:58:45.997Z,99482
2018-04-25T04:01:14.151Z,99475
2018-04-25T04:03:42.298Z,99475
2018-04-25T04:06:10.461Z,99467
2018-04-25T04:08:38.620Z,99468
2018-04-25T04:11:06.806Z,99464
2018-04-25T04:13:34.951Z,99455
2018-04-25T04:16:16.447Z,99454
2018-04-25T04:18:44.610Z,99457
2018-04-25T04:21:12.823Z,99448
2018-04-25T04:23:41.014Z,99449
2018-04-25T04:29:27.513Z,99443
2018-04-25T04:31:55.844Z,99447
2018-04-25T04:34:24.747Z,99443
2018-04-25T04:37:18.943Z,99433
2018-04-25T04:39:47.111Z,99419
2018-04-25T04:42:15.324Z,99420
2018-04-25T04:44:43.502Z,99421
2018-04-25T04:47:12.042Z,99416
2018-04-25T04:49:40.378Z,99414
2018-04-25T04:52:08.563Z,99421
2018-04-25T04:54:55.818Z,99414
2018-04-25T04:57:23.987Z,99408
2018-04-25T05:00:05.235Z,99429
2018-04-25T05:02:45.670Z,99410
2018-04-25T05:05:19.581Z,99409
2018-04-25T05:10:58.343Z,99421
2018-04-25T05:13:32.268Z,99410
2018-04-25T05:16:17.453Z,99393
2018-04-25T05:18:45.657Z,99387
2018-04-25T05:21:13.835Z,99395
2018-04-25T05:23:42.003Z,99402
2018-04-25T05:26:10.289Z,99397
2018-04-25T05:28:57.485Z,99360
2018-04-25T05:31:25.686Z,99402
2018-04-25T05:33:54.607Z,99411
2018-04-25T05:36:22.748Z,99412
2018-04-25T05:38:50.929Z,99403
2018-04-25T05:41:21.626Z,99400
2018-04-25T05:43:49.819Z,99393
2018-04-25T05:46:17.975Z,99389
2018-04-25T05:48:46.211Z,99389
2018-04-25T05:51:14.439Z,99386
2018-04-25T05:53:43.378Z,99390
2018-04-25T05:56:16.262Z,99389
2018-04-25T05:58:44.516Z,99382
2018-04-25T06:01:12.724Z,99389
2018-04-25T06:06:41.216Z,99380
2018-04-25T06:09:09.456Z,99378
2018-04-25T06:20:47.780Z,99387
2018-04-25T06:23:15.910Z,99384
2018-04-25T06:25:44.085Z,99399
2018-04-25T06:28:12.260Z,99374
2018-04-25T06:30:40.523Z,99369
2018-04-25T06:33:08.672Z,99375
2018-04-25T06:35:36.828Z,99369
2018-04-25T06:38:05.776Z,99367
2018-04-25T06:40:34.149Z,99368
2018-04-25T06:46:13.865Z,99365
2018-04-25T06:48:42.023Z,99372
2018-04-25T06:51:10.246Z,99364
2018-04-25T06:54:11.586Z,99369
2018-04-25T06:56:44.779Z,99351
2018-04-25T06:59:12.896Z,99340
2018-04-25T07:08:14.268Z,99343
2018-04-25T07:20:17.392Z,99346
2018-04-25T07:22:45.594Z,99351
2018-04-25T07:25:13.785Z,99346
2018-04-25T07:27:41.975Z,99354
2018-04-25T07:30:10.193Z,99356
2018-04-25T07:32:38.620Z,99346
2018-04-25T07:35:08.381Z,99345
2018-04-25T07:37:36.631Z,99345
2018-04-25T07:40:23.980Z,99353
2018-04-25T07:42:52.667Z,99294
2018-04-25T07:45:21.016Z,99358
2018-04-25T07:47:49.224Z,99362
2018-04-25T07:50:17.622Z,99344
2018-04-25T07:52:45.807Z,99347
2018-04-25T07:55:13.965Z,99338
2018-04-25T07:57:42.267Z,99348
2018-04-25T08:00:16.962Z,99352
2018-04-25T08:02:45.248Z,99353
2018-04-25T08:05:13.481Z,99343
2018-04-25T08:14:21.947Z,99365
2018-04-25T08:17:08.608Z,99363
2018-04-25T08:19:54.635Z,99317
2018-04-25T08:22:23.662Z,99352
2018-04-25T08:24:51.807Z,99362
2018-04-25T08:27:19.980Z,99369
2018-04-25T08:29:49.525Z,99361
2018-04-25T08:32:17.726Z,99360
2018-04-25T08:34:45.888Z,99362
2018-04-25T08:37:14.163Z,99362
2018-04-25T08:39:42.322Z,99362
2018-04-25T08:42:10.676Z,99377
2018-04-25T08:44:52.299Z,99365
2018-04-25T08:47:20.504Z,99384
2018-04-25T08:50:12.681Z,99370
2018-04-25T08:52:40.993Z,99356
2018-04-25T08:55:09.231Z,99360
2018-04-25T08:57:37.374Z,99363
2018-04-25T09:00:11.707Z,99362
2018-04-25T09:02:54.166Z,99374
2018-04-25T09:05:22.313Z,99384
2018-04-25T09:08:03.958Z,99371
2018-04-25T09:10:32.164Z,99379
2018-04-25T09:13:00.411Z,99400
2018-04-25T09:15:56.556Z,99411
2018-04-25T09:18:24.822Z,99413
2018-04-25T09:20:52.959Z,99417
2018-04-25T09:23:21.169Z,99445
2018-04-25T09:25:49.327Z,99416
2018-04-25T09:28:17.504Z,99446
2018-04-25T09:30:45.687Z,99454
2018-04-25T09:33:13.878Z,99457
2018-04-25T09:35:42.195Z,99459
2018-04-25T09:44:32.949Z,99494
2018-04-25T09:47:05.014Z,99496
2018-04-25T09:52:35.549Z,99523
2018-04-25T09:55:08.524Z,99533
2018-04-25T09:57:37.494Z,99534
2018-04-25T10:00:05.695Z,99543
2018-04-25T10:02:33.920Z,99557
2018-04-25T10:10:00.608Z,99580
2018-04-25T10:28:17.143Z,99638
2018-04-25T10:38:03.668Z,99653
2018-04-25T10:40:37.383Z,99665
2018-04-25T10:49:29.470Z,99705
2018-04-25T10:58:35.464Z,99745
2018-04-25T11:01:05.711Z,99755
2018-04-25T11:06:37.348Z,99785
2018-04-25T11:09:05.754Z,99802
2018-04-25T11:11:35.579Z,99803
2018-04-25T11:29:44.843Z,99878
2018-04-25T11:32:15.574Z,99882
2018-04-25T11:34:44.409Z,99880
2018-04-25T11:39:56.105Z,99892
2018-04-25T11:42:24.251Z,99902
2018-04-25T11:44:52.385Z,99913
2018-04-25T11:47:20.598Z,99907
2018-04-25T11:49:48.701Z,99928
2018-04-25T11:52:17.601Z,99935
2018-04-25T11:54:46.504Z,99962
2018-04-25T11:57:15.390Z,99945
2018-04-25T11:59:44.313Z,99955
2018-04-25T12:02:12.511Z,99954
2018-04-25T12:04:42.758Z,99960
2018-04-25T12:07:12.658Z,99966
2018-04-25T12:09:41.054Z,99965
2018-04-25T12:12:10.591Z,99972
2018-04-25T12:14:41.854Z,99987
2018-04-25T12:17:11.416Z,99996
2018-04-25T12:19:39.658Z,99980
2018-04-25T12:22:07.860Z,99988
2018-04-25T12:24:40.684Z,100003
2018-04-25T12:27:10.625Z,100005
2018-04-25T12:30:09.806Z,100008
2018-04-25T12:32:37.957Z,100022
2018-04-25T12:35:06.610Z,100026
2018-04-25T12:37:35.574Z,100024
2018-04-25T12:40:03.749Z,100030
2018-04-25T12:42:32.979Z,100028
2018-04-25T12:45:01.638Z,100037
2018-04-25T12:47:43.671Z,100034
2018-04-25T12:50:11.875Z,100036
2018-04-25T12:52:40.028Z,100036
2018-04-25T12:55:09.531Z,100056
2018-04-25T12:57:45.768Z,100054
2018-04-25T13:00:17.190Z,100064
2018-04-25T13:03:00.331Z,100058
2018-04-25T13:08:28.362Z,100066
2018-04-25T13:10:56.741Z,100068
2018-04-25T13:16:29.744Z,100076
2018-04-25T13:22:19.094Z,100076
2018-04-25T13:24:50.630Z,100083
2018-04-25T13:27:20.111Z,100087
2018-04-25T13:29:48.536Z,100088
2018-04-25T13:32:35.541Z,100093
2018-04-25T13:35:06.287Z,100099
2018-04-25T13:37:34.616Z,100099
2018-04-25T13:40:02.785Z,100107
2018-04-25T13:42:54.535Z,100113
2018-04-25T13:45:28.011Z,100112
2018-04-25T13:58:26.538Z,100143
2018-04-25T14:01:03.024Z,100134
2018-04-25T14:03:41.453Z,100132
2018-04-25T14:06:12.787Z,100134
2018-04-25T14:08:42.158Z,100138
2018-04-25T14:11:11.263Z,100140
2018-04-25T14:13:48.552Z,100145
2018-04-25T14:19:45.999Z,100148
2018-04-25T14:27:54.982Z,100154
2018-04-25T14:30:23.200Z,100165
2018-04-25T14:32:58.820Z,100161
2018-04-25T14:35:27.209Z,100158
2018-04-25T14:37:55.364Z,100161
2018-04-25T14:43:02.672Z,100163
2018-04-25T14:51:09.591Z,100174
2018-04-25T14:53:37.767Z,100178
2018-04-25T14:59:05.801Z,100173
2018-04-25T15:01:34.834Z,100183
2018-04-25T15:04:03.000Z,100184
2018-04-25T15:06:31.189Z,100180
2018-04-25T15:08:59.365Z,100176
2018-04-25T15:14:43.335Z,100186
2018-04-25T15:17:11.796Z,100182
2018-04-25T15:19:42.247Z,100172
2018-04-25T15:25:20.298Z,100176
2018-04-25T15:27:49.247Z,100177
2018-04-25T15:30:39.020Z,100169
2018-04-25T15:36:10.908Z,100169
2018-04-25T15:39:11.510Z,100167
2018-04-25T15:44:37.246Z,100167
2018-04-25T15:47:12.095Z,100173
2018-04-25T15:49:40.383Z,100173
2018-04-25T15:52:08.619Z,100169
2018-04-25T15:54:37.732Z,100180
2018-04-25T15:57:05.915Z,100188
2018-04-25T15:59:34.084Z,100177
2018-04-25T16:02:02.248Z,100178
2018-04-25T16:04:30.450Z,100187
2018-04-25T16:06:58.614Z,100180
2018-04-25T16:09:26.789Z,100198
2018-04-25T16:11:55.015Z,100183
2018-04-25T16:14:25.487Z,100179
2018-04-25T16:16:53.733Z,100173
2018-04-25T16:19:21.904Z,100173
2018-04-25T16:21:50.111Z,100175
2018-04-25T16:24:18.271Z,100176
2018-04-25T16:26:46.434Z,100161
2018-04-25T16:32:06.096Z,100160
2018-04-25T16:34:51.427Z,100154
2018-04-25T16:43:07.464Z,100156
2018-04-25T16:45:35.649Z,100152
2018-04-25T16:51:07.170Z,100154
2018-04-25T16:53:56.515Z,100144
2018-04-25T16:56:25.430Z,100139
2018-04-25T16:58:53.559Z,100148
2018-04-25T17:04:18.562Z,100148
2018-04-25T17:06:46.717Z,100144
2018-04-25T17:09:14.948Z,100142
2018-04-25T17:11:43.084Z,100140
2018-04-25T17:14:11.231Z,100136
2018-04-25T17:16:39.459Z,100145
2018-04-25T17:19:08.593Z,100137
2018-04-25T17:21:36.849Z,100140
2018-04-25T17:24:05.048Z,100142
2018-04-25T17:26:33.257Z,100129
2018-04-25T17:29:01.439Z,100126
2018-04-25T17:31:29.614Z,100120
2018-04-25T17:33:57.811Z,100131
2018-04-25T17:36:26.831Z,100129
2018-04-25T17:38:54.993Z,100130
2018-04-25T17:41:23.186Z,100132
2018-04-25T17:43:51.437Z,100131
2018-04-25T17:46:19.584Z,100122
2018-04-25T17:48:48.527Z,100127
2018-04-25T17:51:19.586Z,100110
2018-04-25T17:53:47.757Z,100132
2018-04-25T17:56:15.959Z,100135
2018-04-25T17:58:44.993Z,100132
2018-04-25T18:01:13.199Z,100136
2018-04-25T18:03:41.400Z,100126
2018-04-25T18:06:09.679Z,100135
2018-04-25T18:08:47.512Z,100133
2018-04-25T18:11:15.737Z,100137
2018-04-25T18:13:43.948Z,100136
2018-04-25T18:16:12.118Z,100143
2018-04-25T18:18:40.363Z,100149
2018-04-25T18:21:09.641Z,100140
2018-04-25T18:23:37.978Z,100152
2018-04-25T18:26:06.190Z,100155
2018-04-25T18:28:34.377Z,100152
2018-04-25T18:31:08.847Z,100152
2018-04-25T18:33:37.056Z,100155
2018-04-25T18:59:02.226Z,100178
2018-04-25T19:04:26.899Z,100176
2018-04-25T19:10:15.369Z,100172
2018-04-25T19:12:50.184Z,100174
2018-04-25T19:15:19.764Z,100178
2018-04-25T19:18:15.946Z,100175
2018-04-25T19:20:48.166Z,100178
2018-04-25T19:23:16.803Z,100183
2018-04-25T19:25:47.822Z,100184
2018-04-25T19:28:21.197Z,100188
2018-04-25T19:30:49.945Z,100197
2018-04-25T19:33:22.633Z,100206
2018-04-25T19:35:54.217Z,100205
2018-04-25T19:44:04.166Z,100190
2018-04-25T19:52:43.949Z,100202
2018-04-25T19:55:14.711Z,100205
2018-04-25T19:57:43.368Z,100193
2018-04-25T20:00:19.307Z,100195
2018-04-25T20:02:59.532Z,100197
2018-04-25T20:05:27.876Z,100183
2018-04-25T20:07:56.159Z,100191
2018-04-25T20:10:24.455Z,100190
2018-04-25T20:12:52.806Z,100184
2018-04-25T20:15:21.114Z,100190
2018-04-25T20:17:49.366Z,100194
2018-04-25T20:20:17.517Z,100195
2018-04-25T20:22:46.534Z,100199
2018-04-25T20:25:14.684Z,100200
2018-04-25T20:27:42.851Z,100203
2018-04-25T20:30:11.025Z,100199
2018-04-25T20:32:39.168Z,100202
2018-04-25T20:35:07.370Z,100208
2018-04-25T20:37:36.341Z,100200
2018-04-25T20:40:05.595Z,100202
2018-04-25T20:42:33.756Z,100204
2018-04-25T20:45:01.924Z,100208
2018-04-25T20:47:30.514Z,100207
2018-04-25T20:49:58.700Z,100204
2018-04-25T20:55:06.507Z,100210
2018-04-25T20:57:34.683Z,100207
2018-04-25T21:00:02.917Z,100218
2018-04-25T21:02:31.192Z,100224
2018-04-25T21:04:59.250Z,100230
2018-04-25T21:07:27.451Z,100218
2018-04-25T21:09:55.595Z,100225
2018-04-25T21:12:23.820Z,100222
2018-04-25T21:14:51.967Z,100223
2018-04-25T21:17:20.220Z,100212
2018-04-25T21:19:48.321Z,100216
2018-04-25T21:22:16.504Z,100219
2018-04-25T21:24:44.670Z,100223
2018-04-25T21:39:15.201Z,100226
2018-04-25T21:47:54.597Z,100221
2018-04-25T21:50:23.562Z,100218
2018-04-25T21:56:15.267Z,100216
2018-04-25T21:59:13.737Z,100224
2018-04-25T22:01:52.635Z,100220
2018-04-25T22:04:34.365Z,100212
2018-04-25T22:07:02.656Z,100211
2018-04-25T22:09:31.029Z,100208
2018-04-25T22:11:59.302Z,100206
2018-04-25T22:14:47.946Z,100206
2018-04-25T22:17:39.703Z,100210
2018-04-25T22:20:25.599Z,100210
2018-04-25T22:22:59.592Z,100211
2018-04-25T22:25:33.798Z,100216
2018-04-25T22:34:15.000Z,100218
2018-04-25T22:57:52.562Z,100215
2018-04-25T23:06:26.870Z,100219
2018-04-25T23:15:19.610Z,100215
2018-04-25T23:30:06.353Z,100218
2018-04-25T23:32:57.072Z,100204
2018-04-25T23:35:27.961Z,100198
2018-04-25T23:37:56.153Z,100199
2018-04-25T23:40:24.330Z,100199
2018-04-25T23:42:53.265Z,100206
2018-04-25T23:54:51.281Z,100202
